sensor_id;sensor_type;location;lat;lon;timestamp;temperature;humidity
22742;DHT22;11538;48.884;8.696;2022-11-20T00:01:29;7.40;99.90
22742;DHT22;11538;48.884;8.696;2022-11-20T00:03:57;7.40;99.90
22742;DHT22;11538;48.884;8.696;2022-11-20T00:06:26;7.40;99.90
22742;DHT22;11538;48.884;8.696;2022-11-20T00:08:57;7.40;99.90
22742;DHT22;11538;48.884;8.696;2022-11-20T00:11:27;7.40;99.90
22742;DHT22;11538;48.884;8.696;2022-11-20T00:13:57;7.40;99.90
22742;DHT22;11538;48.884;8.696;2022-11-20T00:16:27;7.40;99.90
22742;DHT22;11538;48.884;8.696;2022-11-20T00:18:56;7.40;99.90
22742;DHT22;11538;48.884;8.696;2022-11-20T00:21:24;7.30;99.90
22742;DHT22;11538;48.884;8.696;2022-11-20T00:23:53;7.30;99.90
22742;DHT22;11538;48.884;8.696;2022-11-20T00:26:22;7.30;99.90
22742;DHT22;11538;48.884;8.696;2022-11-20T00:28:51;7.30;99.90
22742;DHT22;11538;48.884;8.696;2022-11-20T00:31:19;7.30;99.90
22742;DHT22;11538;48.884;8.696;2022-11-20T00:33:46;7.20;99.90
22742;DHT22;11538;48.884;8.696;2022-11-20T00:36:15;7.20;99.90
22742;DHT22;11538;48.884;8.696;2022-11-20T00:38:44;7.20;99.90
22742;DHT22;11538;48.884;8.696;2022-11-20T00:41:12;7.20;99.90
22742;DHT22;11538;48.884;8.696;2022-11-20T00:43:41;7.20;99.90
22742;DHT22;11538;48.884;8.696;2022-11-20T00:46:15;7.10;99.90
22742;DHT22;11538;48.884;8.696;2022-11-20T00:48:44;7.10;99.90
22742;DHT22;11538;48.884;8.696;2022-11-20T00:51:17;7.20;99.90
22742;DHT22;11538;48.884;8.696;2022-11-20T00:53:45;7.20;99.90
22742;DHT22;11538;48.884;8.696;2022-11-20T00:56:14;7.20;99.90
22742;DHT22;11538;48.884;8.696;2022-11-20T00:58:43;7.20;99.90
22742;DHT22;11538;48.884;8.696;2022-11-20T01:01:12;7.20;99.90
22742;DHT22;11538;48.884;8.696;2022-11-20T01:03:42;7.20;99.90
22742;DHT22;11538;48.884;8.696;2022-11-20T01:06:14;7.20;99.90
22742;DHT22;11538;48.884;8.696;2022-11-20T01:08:43;7.20;99.90
22742;DHT22;11538;48.884;8.696;2022-11-20T01:11:14;7.20;99.90
22742;DHT22;11538;48.884;8.696;2022-11-20T01:13:43;7.20;99.90
22742;DHT22;11538;48.884;8.696;2022-11-20T01:16:21;7.20;99.90
22742;DHT22;11538;48.884;8.696;2022-11-20T01:18:53;7.20;99.90
22742;DHT22;11538;48.884;8.696;2022-11-20T01:21:24;7.20;99.90
22742;DHT22;11538;48.884;8.696;2022-11-20T01:23:53;7.20;99.90
22742;DHT22;11538;48.884;8.696;2022-11-20T01:26:22;7.30;99.90
22742;DHT22;11538;48.884;8.696;2022-11-20T01:28:50;7.20;99.90
22742;DHT22;11538;48.884;8.696;2022-11-20T01:31:19;7.20;99.90
22742;DHT22;11538;48.884;8.696;2022-11-20T01:33:46;7.20;99.90
22742;DHT22;11538;48.884;8.696;2022-11-20T01:36:16;7.20;99.90
22742;DHT22;11538;48.884;8.696;2022-11-20T01:38:44;7.20;99.90
22742;DHT22;11538;48.884;8.696;2022-11-20T01:41:12;7.20;99.90
22742;DHT22;11538;48.884;8.696;2022-11-20T01:44:00;7.20;99.90
22742;DHT22;11538;48.884;8.696;2022-11-20T01:46:29;7.20;99.90
22742;DHT22;11538;48.884;8.696;2022-11-20T01:49:07;7.20;99.90
22742;DHT22;11538;48.884;8.696;2022-11-20T01:51:41;7.20;99.90
22742;DHT22;11538;48.884;8.696;2022-11-20T01:54:17;7.20;99.90
22742;DHT22;11538;48.884;8.696;2022-11-20T01:56:48;7.30;99.90
22742;DHT22;11538;48.884;8.696;2022-11-20T01:59:20;7.30;99.90
22742;DHT22;11538;48.884;8.696;2022-11-20T02:01:49;7.40;99.90
22742;DHT22;11538;48.884;8.696;2022-11-20T02:04:16;7.40;99.90
22742;DHT22;11538;48.884;8.696;2022-11-20T02:06:48;7.50;99.90
22742;DHT22;11538;48.884;8.696;2022-11-20T02:09:18;7.60;99.90
22742;DHT22;11538;48.884;8.696;2022-11-20T02:11:45;7.60;99.90
22742;DHT22;11538;48.884;8.696;2022-11-20T02:14:12;7.70;99.90
22742;DHT22;11538;48.884;8.696;2022-11-20T02:16:43;7.70;99.90
22742;DHT22;11538;48.884;8.696;2022-11-20T02:22:02;7.80;99.90
22742;DHT22;11538;48.884;8.696;2022-11-20T02:24:34;7.80;99.90
22742;DHT22;11538;48.884;8.696;2022-11-20T02:27:14;7.80;99.90
22742;DHT22;11538;48.884;8.696;2022-11-20T02:32:34;7.90;99.90
22742;DHT22;11538;48.884;8.696;2022-11-20T02:37:44;7.90;99.90
22742;DHT22;11538;48.884;8.696;2022-11-20T02:40:31;7.90;99.90
22742;DHT22;11538;48.884;8.696;2022-11-20T02:42:58;7.90;99.90
22742;DHT22;11538;48.884;8.696;2022-11-20T02:45:25;7.90;99.90
22742;DHT22;11538;48.884;8.696;2022-11-20T02:47:52;8.00;99.90
22742;DHT22;11538;48.884;8.696;2022-11-20T02:50:19;8.00;99.90
22742;DHT22;11538;48.884;8.696;2022-11-20T02:52:47;8.00;99.90
22742;DHT22;11538;48.884;8.696;2022-11-20T02:55:14;8.00;99.90
22742;DHT22;11538;48.884;8.696;2022-11-20T02:57:40;8.00;99.90
22742;DHT22;11538;48.884;8.696;2022-11-20T03:00:07;8.10;99.90
22742;DHT22;11538;48.884;8.696;2022-11-20T03:02:35;8.00;99.90
22742;DHT22;11538;48.884;8.696;2022-11-20T03:05:02;8.10;99.90
22742;DHT22;11538;48.884;8.696;2022-11-20T03:07:29;8.10;99.90
22742;DHT22;11538;48.884;8.696;2022-11-20T03:09:56;8.10;99.90
22742;DHT22;11538;48.884;8.696;2022-11-20T03:12:23;8.10;99.90
22742;DHT22;11538;48.884;8.696;2022-11-20T03:14:50;8.10;99.90
22742;DHT22;11538;48.884;8.696;2022-11-20T03:17:19;8.10;99.90
22742;DHT22;11538;48.884;8.696;2022-11-20T03:19:46;8.10;99.90
22742;DHT22;11538;48.884;8.696;2022-11-20T03:22:13;8.10;99.90
22742;DHT22;11538;48.884;8.696;2022-11-20T03:24:39;8.10;99.90
22742;DHT22;11538;48.884;8.696;2022-11-20T03:27:07;8.00;99.90
22742;DHT22;11538;48.884;8.696;2022-11-20T03:29:43;8.00;99.90
22742;DHT22;11538;48.884;8.696;2022-11-20T03:32:09;8.00;99.90
22742;DHT22;11538;48.884;8.696;2022-11-20T03:34:36;8.00;99.90
22742;DHT22;11538;48.884;8.696;2022-11-20T03:37:03;8.00;99.90
22742;DHT22;11538;48.884;8.696;2022-11-20T03:39:30;8.00;99.90
22742;DHT22;11538;48.884;8.696;2022-11-20T03:41:56;7.90;99.90
22742;DHT22;11538;48.884;8.696;2022-11-20T03:44:23;7.90;99.90
22742;DHT22;11538;48.884;8.696;2022-11-20T03:46:51;7.90;99.90
22742;DHT22;11538;48.884;8.696;2022-11-20T03:49:17;7.90;99.90
22742;DHT22;11538;48.884;8.696;2022-11-20T03:51:44;7.90;99.90
22742;DHT22;11538;48.884;8.696;2022-11-20T03:54:11;7.90;99.90
22742;DHT22;11538;48.884;8.696;2022-11-20T03:56:38;7.90;99.90
22742;DHT22;11538;48.884;8.696;2022-11-20T03:59:06;7.90;99.90
22742;DHT22;11538;48.884;8.696;2022-11-20T04:01:36;7.90;99.90
22742;DHT22;11538;48.884;8.696;2022-11-20T04:04:12;7.90;99.90
22742;DHT22;11538;48.884;8.696;2022-11-20T04:06:39;7.90;99.90
22742;DHT22;11538;48.884;8.696;2022-11-20T04:09:06;8.00;99.90
22742;DHT22;11538;48.884;8.696;2022-11-20T04:11:33;8.00;99.90
22742;DHT22;11538;48.884;8.696;2022-11-20T04:14:03;8.00;99.90
22742;DHT22;11538;48.884;8.696;2022-11-20T04:16:33;8.00;99.90
22742;DHT22;11538;48.884;8.696;2022-11-20T04:19:02;8.00;99.90
22742;DHT22;11538;48.884;8.696;2022-11-20T04:21:32;8.00;99.90
22742;DHT22;11538;48.884;8.696;2022-11-20T04:23:59;8.00;99.90
22742;DHT22;11538;48.884;8.696;2022-11-20T04:26:27;8.00;99.90
22742;DHT22;11538;48.884;8.696;2022-11-20T04:28:54;8.00;99.90
22742;DHT22;11538;48.884;8.696;2022-11-20T04:31:23;8.00;99.90
22742;DHT22;11538;48.884;8.696;2022-11-20T04:33:53;8.00;99.90
22742;DHT22;11538;48.884;8.696;2022-11-20T04:36:22;8.00;99.90
22742;DHT22;11538;48.884;8.696;2022-11-20T04:38:55;8.00;99.90
22742;DHT22;11538;48.884;8.696;2022-11-20T04:41:26;8.00;99.90
22742;DHT22;11538;48.884;8.696;2022-11-20T04:43:59;8.10;99.90
22742;DHT22;11538;48.884;8.696;2022-11-20T04:46:30;8.00;99.90
22742;DHT22;11538;48.884;8.696;2022-11-20T04:48:59;8.00;99.90
22742;DHT22;11538;48.884;8.696;2022-11-20T04:51:26;8.00;99.90
22742;DHT22;11538;48.884;8.696;2022-11-20T04:53:53;8.10;99.90
22742;DHT22;11538;48.884;8.696;2022-11-20T04:56:20;8.10;99.90
22742;DHT22;11538;48.884;8.696;2022-11-20T04:58:47;8.00;99.90
22742;DHT22;11538;48.884;8.696;2022-11-20T05:01:15;8.10;99.90
22742;DHT22;11538;48.884;8.696;2022-11-20T05:03:46;8.10;99.90
22742;DHT22;11538;48.884;8.696;2022-11-20T05:06:16;8.10;99.90
22742;DHT22;11538;48.884;8.696;2022-11-20T05:08:44;8.10;99.90
22742;DHT22;11538;48.884;8.696;2022-11-20T05:11:12;8.10;99.90
22742;DHT22;11538;48.884;8.696;2022-11-20T05:13:41;8.10;99.90
22742;DHT22;11538;48.884;8.696;2022-11-20T05:16:13;8.10;99.90
22742;DHT22;11538;48.884;8.696;2022-11-20T05:18:44;8.10;99.90
22742;DHT22;11538;48.884;8.696;2022-11-20T05:21:11;8.20;99.90
22742;DHT22;11538;48.884;8.696;2022-11-20T05:23:39;8.10;99.90
22742;DHT22;11538;48.884;8.696;2022-11-20T05:26:07;8.10;99.90
22742;DHT22;11538;48.884;8.696;2022-11-20T05:28:35;8.10;99.90
22742;DHT22;11538;48.884;8.696;2022-11-20T05:31:05;8.10;99.90
22742;DHT22;11538;48.884;8.696;2022-11-20T05:33:34;8.10;99.90
22742;DHT22;11538;48.884;8.696;2022-11-20T05:36:03;8.10;99.90
22742;DHT22;11538;48.884;8.696;2022-11-20T05:38:30;8.20;99.90
22742;DHT22;11538;48.884;8.696;2022-11-20T05:41:08;8.10;99.90
22742;DHT22;11538;48.884;8.696;2022-11-20T05:43:37;8.10;99.90
22742;DHT22;11538;48.884;8.696;2022-11-20T05:46:05;8.10;99.90
22742;DHT22;11538;48.884;8.696;2022-11-20T05:48:34;8.10;99.90
22742;DHT22;11538;48.884;8.696;2022-11-20T05:51:02;8.10;99.90
22742;DHT22;11538;48.884;8.696;2022-11-20T05:53:30;8.10;99.90
22742;DHT22;11538;48.884;8.696;2022-11-20T05:55:59;8.10;99.90
22742;DHT22;11538;48.884;8.696;2022-11-20T05:58:31;8.10;99.90
22742;DHT22;11538;48.884;8.696;2022-11-20T06:03:37;8.10;99.90
22742;DHT22;11538;48.884;8.696;2022-11-20T06:06:04;8.10;99.90
22742;DHT22;11538;48.884;8.696;2022-11-20T06:08:32;8.10;99.90
22742;DHT22;11538;48.884;8.696;2022-11-20T06:11:02;8.10;99.90
22742;DHT22;11538;48.884;8.696;2022-11-20T06:13:33;8.10;99.90
22742;DHT22;11538;48.884;8.696;2022-11-20T06:16:07;8.10;99.90
22742;DHT22;11538;48.884;8.696;2022-11-20T06:18:34;8.10;99.90
22742;DHT22;11538;48.884;8.696;2022-11-20T06:21:02;8.10;99.90
22742;DHT22;11538;48.884;8.696;2022-11-20T06:23:31;8.10;99.90
22742;DHT22;11538;48.884;8.696;2022-11-20T06:26:32;8.20;99.90
22742;DHT22;11538;48.884;8.696;2022-11-20T06:28:53;8.20;99.90
22742;DHT22;11538;48.884;8.696;2022-11-20T06:31:23;8.20;99.90
22742;DHT22;11538;48.884;8.696;2022-11-20T06:33:50;8.20;99.90
22742;DHT22;11538;48.884;8.696;2022-11-20T06:36:18;8.20;99.90
22742;DHT22;11538;48.884;8.696;2022-11-20T06:38:50;8.20;99.90
22742;DHT22;11538;48.884;8.696;2022-11-20T06:41:18;8.20;99.90
22742;DHT22;11538;48.884;8.696;2022-11-20T06:43:46;8.20;99.90
22742;DHT22;11538;48.884;8.696;2022-11-20T06:46:14;8.20;99.90
22742;DHT22;11538;48.884;8.696;2022-11-20T06:48:44;8.20;99.90
22742;DHT22;11538;48.884;8.696;2022-11-20T06:51:12;8.20;99.90
22742;DHT22;11538;48.884;8.696;2022-11-20T06:53:39;8.20;99.90
22742;DHT22;11538;48.884;8.696;2022-11-20T06:56:06;8.20;99.90
22742;DHT22;11538;48.884;8.696;2022-11-20T06:58:34;8.20;99.90
22742;DHT22;11538;48.884;8.696;2022-11-20T07:01:06;8.20;99.90
22742;DHT22;11538;48.884;8.696;2022-11-20T07:03:35;8.20;99.90
22742;DHT22;11538;48.884;8.696;2022-11-20T07:06:02;8.20;99.90
22742;DHT22;11538;48.884;8.696;2022-11-20T07:08:29;8.20;99.90
22742;DHT22;11538;48.884;8.696;2022-11-20T07:10:58;8.20;99.90
22742;DHT22;11538;48.884;8.696;2022-11-20T07:13:26;8.30;99.90
22742;DHT22;11538;48.884;8.696;2022-11-20T07:15:54;8.20;99.90
22742;DHT22;11538;48.884;8.696;2022-11-20T07:18:21;8.20;99.90
22742;DHT22;11538;48.884;8.696;2022-11-20T07:20:48;8.20;99.90
22742;DHT22;11538;48.884;8.696;2022-11-20T07:23:15;8.20;99.90
22742;DHT22;11538;48.884;8.696;2022-11-20T07:25:42;8.20;99.90
22742;DHT22;11538;48.884;8.696;2022-11-20T07:28:08;8.20;99.90
22742;DHT22;11538;48.884;8.696;2022-11-20T07:30:37;8.20;99.90
22742;DHT22;11538;48.884;8.696;2022-11-20T07:33:04;8.20;99.90
22742;DHT22;11538;48.884;8.696;2022-11-20T07:35:31;8.20;99.90
22742;DHT22;11538;48.884;8.696;2022-11-20T07:37:58;8.20;99.90
22742;DHT22;11538;48.884;8.696;2022-11-20T07:40:25;8.20;99.90
22742;DHT22;11538;48.884;8.696;2022-11-20T07:42:52;8.20;99.90
22742;DHT22;11538;48.884;8.696;2022-11-20T07:45:21;8.20;99.90
22742;DHT22;11538;48.884;8.696;2022-11-20T07:47:50;8.20;99.90
22742;DHT22;11538;48.884;8.696;2022-11-20T07:50:17;8.20;99.90
22742;DHT22;11538;48.884;8.696;2022-11-20T07:52:45;8.20;99.90
22742;DHT22;11538;48.884;8.696;2022-11-20T07:55:12;8.20;99.90
22742;DHT22;11538;48.884;8.696;2022-11-20T07:57:39;8.20;99.90
22742;DHT22;11538;48.884;8.696;2022-11-20T08:00:07;8.20;99.90
22742;DHT22;11538;48.884;8.696;2022-11-20T08:02:41;8.20;99.90
22742;DHT22;11538;48.884;8.696;2022-11-20T08:05:09;8.20;99.90
22742;DHT22;11538;48.884;8.696;2022-11-20T08:07:40;8.20;99.90
22742;DHT22;11538;48.884;8.696;2022-11-20T08:10:10;8.20;99.90
22742;DHT22;11538;48.884;8.696;2022-11-20T08:12:45;8.20;99.90
22742;DHT22;11538;48.884;8.696;2022-11-20T08:15:32;8.20;99.90
22742;DHT22;11538;48.884;8.696;2022-11-20T08:18:06;8.30;99.90
22742;DHT22;11538;48.884;8.696;2022-11-20T08:20:54;8.30;99.90
22742;DHT22;11538;48.884;8.696;2022-11-20T08:23:22;8.30;99.90
22742;DHT22;11538;48.884;8.696;2022-11-20T08:25:49;8.30;99.90
22742;DHT22;11538;48.884;8.696;2022-11-20T08:28:17;8.30;99.90
22742;DHT22;11538;48.884;8.696;2022-11-20T08:30:48;8.40;99.90
22742;DHT22;11538;48.884;8.696;2022-11-20T08:33:16;8.40;99.90
22742;DHT22;11538;48.884;8.696;2022-11-20T08:35:43;8.40;99.90
22742;DHT22;11538;48.884;8.696;2022-11-20T08:38:10;8.40;99.90
22742;DHT22;11538;48.884;8.696;2022-11-20T08:40:37;8.40;99.90
22742;DHT22;11538;48.884;8.696;2022-11-20T08:43:04;8.40;99.90
22742;DHT22;11538;48.884;8.696;2022-11-20T08:45:31;8.40;99.90
22742;DHT22;11538;48.884;8.696;2022-11-20T08:48:01;8.50;99.90
22742;DHT22;11538;48.884;8.696;2022-11-20T08:50:29;8.50;99.90
22742;DHT22;11538;48.884;8.696;2022-11-20T08:53:03;8.50;99.90
22742;DHT22;11538;48.884;8.696;2022-11-20T08:55:30;8.50;99.90
22742;DHT22;11538;48.884;8.696;2022-11-20T08:57:57;8.60;99.90
22742;DHT22;11538;48.884;8.696;2022-11-20T09:00:24;8.50;99.90
22742;DHT22;11538;48.884;8.696;2022-11-20T09:02:51;8.50;99.90
22742;DHT22;11538;48.884;8.696;2022-11-20T09:05:18;8.60;99.90
22742;DHT22;11538;48.884;8.696;2022-11-20T09:07:45;8.60;99.90
22742;DHT22;11538;48.884;8.696;2022-11-20T09:10:12;8.60;99.90
22742;DHT22;11538;48.884;8.696;2022-11-20T09:12:53;8.60;99.90
22742;DHT22;11538;48.884;8.696;2022-11-20T09:15:22;8.60;99.90
22742;DHT22;11538;48.884;8.696;2022-11-20T09:17:51;8.60;99.90
22742;DHT22;11538;48.884;8.696;2022-11-20T09:20:21;8.60;99.90
22742;DHT22;11538;48.884;8.696;2022-11-20T09:22:48;8.50;99.90
22742;DHT22;11538;48.884;8.696;2022-11-20T09:25:15;8.50;99.90
22742;DHT22;11538;48.884;8.696;2022-11-20T09:27:43;8.50;99.90
22742;DHT22;11538;48.884;8.696;2022-11-20T09:30:15;8.50;99.90
22742;DHT22;11538;48.884;8.696;2022-11-20T09:32:42;8.50;99.90
22742;DHT22;11538;48.884;8.696;2022-11-20T09:35:09;8.50;99.90
22742;DHT22;11538;48.884;8.696;2022-11-20T09:37:37;8.50;99.90
22742;DHT22;11538;48.884;8.696;2022-11-20T09:40:04;8.50;99.90
22742;DHT22;11538;48.884;8.696;2022-11-20T09:48:13;8.40;99.90
22742;DHT22;11538;48.884;8.696;2022-11-20T09:56:21;8.20;99.90
22742;DHT22;11538;48.884;8.696;2022-11-20T09:58:50;8.10;99.90
22742;DHT22;11538;48.884;8.696;2022-11-20T10:01:19;8.10;99.90
22742;DHT22;11538;48.884;8.696;2022-11-20T10:09:58;8.00;99.90
22742;DHT22;11538;48.884;8.696;2022-11-20T10:27:03;8.00;99.90
22742;DHT22;11538;48.884;8.696;2022-11-20T10:29:40;8.00;99.90
22742;DHT22;11538;48.884;8.696;2022-11-20T10:32:11;8.10;99.90
22742;DHT22;11538;48.884;8.696;2022-11-20T10:34:53;8.10;99.90
22742;DHT22;11538;48.884;8.696;2022-11-20T10:37:31;8.10;99.90
22742;DHT22;11538;48.884;8.696;2022-11-20T10:40:05;8.20;99.90
22742;DHT22;11538;48.884;8.696;2022-11-20T10:42:56;8.20;99.90
22742;DHT22;11538;48.884;8.696;2022-11-20T10:45:36;8.20;99.90
22742;DHT22;11538;48.884;8.696;2022-11-20T10:48:18;8.20;99.90
22742;DHT22;11538;48.884;8.696;2022-11-20T10:56:46;8.50;99.90
22742;DHT22;11538;48.884;8.696;2022-11-20T11:02:19;8.80;99.90
22742;DHT22;11538;48.884;8.696;2022-11-20T11:04:53;8.90;99.90
22742;DHT22;11538;48.884;8.696;2022-11-20T11:07:36;9.10;99.90
22742;DHT22;11538;48.884;8.696;2022-11-20T11:13:20;9.50;99.90
22742;DHT22;11538;48.884;8.696;2022-11-20T11:15:48;9.70;99.90
22742;DHT22;11538;48.884;8.696;2022-11-20T11:18:26;9.90;99.90
22742;DHT22;11538;48.884;8.696;2022-11-20T11:20:56;10.10;99.90
22742;DHT22;11538;48.884;8.696;2022-11-20T11:26:01;10.30;99.90
22742;DHT22;11538;48.884;8.696;2022-11-20T11:28:30;10.40;99.90
22742;DHT22;11538;48.884;8.696;2022-11-20T11:31:05;10.50;99.90
22742;DHT22;11538;48.884;8.696;2022-11-20T11:33:32;10.60;99.90
22742;DHT22;11538;48.884;8.696;2022-11-20T11:36:16;10.70;99.90
22742;DHT22;11538;48.884;8.696;2022-11-20T11:38:53;10.70;99.90
22742;DHT22;11538;48.884;8.696;2022-11-20T11:41:22;10.90;99.90
22742;DHT22;11538;48.884;8.696;2022-11-20T11:43:55;11.00;99.90
22742;DHT22;11538;48.884;8.696;2022-11-20T11:47:00;11.20;99.90
22742;DHT22;11538;48.884;8.696;2022-11-20T11:49:30;11.40;99.90
22742;DHT22;11538;48.884;8.696;2022-11-20T12:00:26;11.90;99.90
22742;DHT22;11538;48.884;8.696;2022-11-20T12:02:55;11.90;99.90
22742;DHT22;11538;48.884;8.696;2022-11-20T12:08:02;12.10;99.90
22742;DHT22;11538;48.884;8.696;2022-11-20T12:13:48;12.30;99.90
22742;DHT22;11538;48.884;8.696;2022-11-20T12:16:22;12.40;99.90
22742;DHT22;11538;48.884;8.696;2022-11-20T12:18:50;12.50;99.90
22742;DHT22;11538;48.884;8.696;2022-11-20T12:29:43;12.60;99.90
22742;DHT22;11538;48.884;8.696;2022-11-20T12:56:37;11.90;99.90
22742;DHT22;11538;48.884;8.696;2022-11-20T13:07:48;11.00;99.90
22742;DHT22;11538;48.884;8.696;2022-11-20T13:10:29;10.90;99.90
22742;DHT22;11538;48.884;8.696;2022-11-20T13:18:43;10.50;99.90
22742;DHT22;11538;48.884;8.696;2022-11-20T13:21:16;10.50;99.90
22742;DHT22;11538;48.884;8.696;2022-11-20T13:24:03;10.50;99.90
22742;DHT22;11538;48.884;8.696;2022-11-20T13:26:46;10.40;99.90
22742;DHT22;11538;48.884;8.696;2022-11-20T13:29:17;10.40;99.90
22742;DHT22;11538;48.884;8.696;2022-11-20T13:31:46;10.30;99.90
22742;DHT22;11538;48.884;8.696;2022-11-20T13:34:27;10.30;99.90
22742;DHT22;11538;48.884;8.696;2022-11-20T13:36:55;10.30;99.90
22742;DHT22;11538;48.884;8.696;2022-11-20T13:39:29;10.30;99.90
22742;DHT22;11538;48.884;8.696;2022-11-20T13:42:02;10.30;99.90
22742;DHT22;11538;48.884;8.696;2022-11-20T13:45:00;10.30;99.90
22742;DHT22;11538;48.884;8.696;2022-11-20T13:47:47;10.30;99.90
22742;DHT22;11538;48.884;8.696;2022-11-20T13:50:15;10.20;99.90
22742;DHT22;11538;48.884;8.696;2022-11-20T13:55:32;10.20;99.90
22742;DHT22;11538;48.884;8.696;2022-11-20T13:58:24;10.20;99.90
22742;DHT22;11538;48.884;8.696;2022-11-20T14:01:10;10.10;99.90
22742;DHT22;11538;48.884;8.696;2022-11-20T14:03:43;10.10;99.90
22742;DHT22;11538;48.884;8.696;2022-11-20T14:06:31;10.10;99.90
22742;DHT22;11538;48.884;8.696;2022-11-20T14:09:01;10.10;99.90
22742;DHT22;11538;48.884;8.696;2022-11-20T14:11:34;10.00;99.90
22742;DHT22;11538;48.884;8.696;2022-11-20T14:14:16;10.00;99.90
22742;DHT22;11538;48.884;8.696;2022-11-20T14:17:20;10.00;99.90
22742;DHT22;11538;48.884;8.696;2022-11-20T14:20:42;10.00;99.90
22742;DHT22;11538;48.884;8.696;2022-11-20T14:23:31;9.90;99.90
22742;DHT22;11538;48.884;8.696;2022-11-20T14:26:07;9.90;99.90
22742;DHT22;11538;48.884;8.696;2022-11-20T14:29:01;9.80;99.90
22742;DHT22;11538;48.884;8.696;2022-11-20T14:31:35;9.80;99.90
22742;DHT22;11538;48.884;8.696;2022-11-20T14:34:26;9.80;99.90
22742;DHT22;11538;48.884;8.696;2022-11-20T14:37:06;9.70;99.90
22742;DHT22;11538;48.884;8.696;2022-11-20T14:39:57;9.70;99.90
22742;DHT22;11538;48.884;8.696;2022-11-20T14:42:43;9.70;99.90
22742;DHT22;11538;48.884;8.696;2022-11-20T14:45:11;9.70;99.90
22742;DHT22;11538;48.884;8.696;2022-11-20T14:47:38;9.70;99.90
22742;DHT22;11538;48.884;8.696;2022-11-20T14:50:12;9.70;99.90
22742;DHT22;11538;48.884;8.696;2022-11-20T14:52:49;9.60;99.90
22742;DHT22;11538;48.884;8.696;2022-11-20T14:58:04;9.60;99.90
22742;DHT22;11538;48.884;8.696;2022-11-20T15:00:33;9.60;99.90
22742;DHT22;11538;48.884;8.696;2022-11-20T15:03:01;9.50;99.90
22742;DHT22;11538;48.884;8.696;2022-11-20T15:05:48;9.50;99.90
22742;DHT22;11538;48.884;8.696;2022-11-20T15:08:17;9.50;99.90
22742;DHT22;11538;48.884;8.696;2022-11-20T15:10:47;9.40;99.90
22742;DHT22;11538;48.884;8.696;2022-11-20T15:13:24;9.40;99.90
22742;DHT22;11538;48.884;8.696;2022-11-20T15:15:56;9.30;99.90
22742;DHT22;11538;48.884;8.696;2022-11-20T15:18:37;9.30;99.90
22742;DHT22;11538;48.884;8.696;2022-11-20T15:21:12;9.20;99.90
22742;DHT22;11538;48.884;8.696;2022-11-20T15:23:40;9.20;99.90
22742;DHT22;11538;48.884;8.696;2022-11-20T15:26:08;9.20;99.90
22742;DHT22;11538;48.884;8.696;2022-11-20T15:28:44;9.10;99.90
22742;DHT22;11538;48.884;8.696;2022-11-20T15:31:15;9.10;99.90
22742;DHT22;11538;48.884;8.696;2022-11-20T15:33:44;9.00;99.90
22742;DHT22;11538;48.884;8.696;2022-11-20T15:36:14;9.00;99.90
22742;DHT22;11538;48.884;8.696;2022-11-20T15:38:41;9.00;99.90
22742;DHT22;11538;48.884;8.696;2022-11-20T15:41:08;8.90;99.90
22742;DHT22;11538;48.884;8.696;2022-11-20T15:43:35;8.90;99.90
22742;DHT22;11538;48.884;8.696;2022-11-20T15:46:03;8.80;99.90
22742;DHT22;11538;48.884;8.696;2022-11-20T15:48:48;8.80;99.90
22742;DHT22;11538;48.884;8.696;2022-11-20T15:54:20;8.70;99.90
22742;DHT22;11538;48.884;8.696;2022-11-20T15:56:49;8.70;99.90
22742;DHT22;11538;48.884;8.696;2022-11-20T15:59:18;8.70;99.90
22742;DHT22;11538;48.884;8.696;2022-11-20T16:01:45;8.60;99.90
22742;DHT22;11538;48.884;8.696;2022-11-20T16:04:13;8.60;99.90
22742;DHT22;11538;48.884;8.696;2022-11-20T16:06:42;8.60;99.90
22742;DHT22;11538;48.884;8.696;2022-11-20T16:09:09;8.60;99.90
22742;DHT22;11538;48.884;8.696;2022-11-20T16:11:36;8.50;99.90
22742;DHT22;11538;48.884;8.696;2022-11-20T16:14:04;8.50;99.90
22742;DHT22;11538;48.884;8.696;2022-11-20T16:16:50;8.50;99.90
22742;DHT22;11538;48.884;8.696;2022-11-20T16:19:17;8.50;99.90
22742;DHT22;11538;48.884;8.696;2022-11-20T16:21:45;8.40;99.90
22742;DHT22;11538;48.884;8.696;2022-11-20T16:24:13;8.40;99.90
22742;DHT22;11538;48.884;8.696;2022-11-20T16:26:40;8.40;99.90
22742;DHT22;11538;48.884;8.696;2022-11-20T16:29:07;8.40;99.90
22742;DHT22;11538;48.884;8.696;2022-11-20T16:31:34;8.40;99.90
22742;DHT22;11538;48.884;8.696;2022-11-20T16:34:03;8.40;99.90
22742;DHT22;11538;48.884;8.696;2022-11-20T16:36:41;8.30;99.90
22742;DHT22;11538;48.884;8.696;2022-11-20T16:39:09;8.30;99.90
22742;DHT22;11538;48.884;8.696;2022-11-20T16:41:37;8.30;99.90
22742;DHT22;11538;48.884;8.696;2022-11-20T16:44:08;8.30;99.90
22742;DHT22;11538;48.884;8.696;2022-11-20T16:46:36;8.30;99.90
22742;DHT22;11538;48.884;8.696;2022-11-20T16:49:04;8.30;99.90
22742;DHT22;11538;48.884;8.696;2022-11-20T16:51:35;8.30;99.90
22742;DHT22;11538;48.884;8.696;2022-11-20T16:54:03;8.30;99.90
22742;DHT22;11538;48.884;8.696;2022-11-20T16:56:32;8.20;99.90
22742;DHT22;11538;48.884;8.696;2022-11-20T16:58:59;8.20;99.90
22742;DHT22;11538;48.884;8.696;2022-11-20T17:01:28;8.20;99.90
22742;DHT22;11538;48.884;8.696;2022-11-20T17:06:25;8.10;99.90
22742;DHT22;11538;48.884;8.696;2022-11-20T17:08:54;8.10;99.90
22742;DHT22;11538;48.884;8.696;2022-11-20T17:11:23;8.10;99.90
22742;DHT22;11538;48.884;8.696;2022-11-20T17:13:51;8.10;99.90
22742;DHT22;11538;48.884;8.696;2022-11-20T17:16:19;8.10;99.90
22742;DHT22;11538;48.884;8.696;2022-11-20T17:18:47;8.10;99.90
22742;DHT22;11538;48.884;8.696;2022-11-20T17:21:17;8.10;99.90
22742;DHT22;11538;48.884;8.696;2022-11-20T17:23:45;8.10;99.90
22742;DHT22;11538;48.884;8.696;2022-11-20T17:26:13;8.10;99.90
22742;DHT22;11538;48.884;8.696;2022-11-20T17:28:55;8.10;99.90
22742;DHT22;11538;48.884;8.696;2022-11-20T17:31:27;8.10;99.90
22742;DHT22;11538;48.884;8.696;2022-11-20T17:33:55;8.10;99.90
22742;DHT22;11538;48.884;8.696;2022-11-20T17:36:22;8.10;99.90
22742;DHT22;11538;48.884;8.696;2022-11-20T17:38:49;8.10;99.90
22742;DHT22;11538;48.884;8.696;2022-11-20T17:41:17;8.20;99.90
22742;DHT22;11538;48.884;8.696;2022-11-20T17:43:45;8.20;99.90
22742;DHT22;11538;48.884;8.696;2022-11-20T17:46:13;8.30;99.90
22742;DHT22;11538;48.884;8.696;2022-11-20T17:48:43;8.30;99.90
22742;DHT22;11538;48.884;8.696;2022-11-20T17:51:11;8.30;99.90
22742;DHT22;11538;48.884;8.696;2022-11-20T17:53:46;8.30;99.90
22742;DHT22;11538;48.884;8.696;2022-11-20T17:56:14;8.30;99.90
22742;DHT22;11538;48.884;8.696;2022-11-20T17:59:04;8.30;99.90
22742;DHT22;11538;48.884;8.696;2022-11-20T18:01:53;8.30;99.90
22742;DHT22;11538;48.884;8.696;2022-11-20T18:04:48;8.30;99.90
22742;DHT22;11538;48.884;8.696;2022-11-20T18:07:30;8.20;99.90
22742;DHT22;11538;48.884;8.696;2022-11-20T18:13:05;8.20;99.90
22742;DHT22;11538;48.884;8.696;2022-11-20T18:16:16;8.20;99.90
22742;DHT22;11538;48.884;8.696;2022-11-20T18:19:02;8.20;99.90
22742;DHT22;11538;48.884;8.696;2022-11-20T18:21:37;8.10;99.90
22742;DHT22;11538;48.884;8.696;2022-11-20T18:24:35;8.10;99.90